createdAt,value
2019-05-12T00:02:14.792Z,100.00
2019-05-12T00:07:18.021Z,100.00
2019-05-12T00:12:20.158Z,100.00
2019-05-12T00:17:24.655Z,100.00
2019-05-12T00:22:31.034Z,100.00
2019-05-12T00:27:33.792Z,100.00
2019-05-12T00:32:35.650Z,100.00
2019-05-12T00:37:38.329Z,100.00
2019-05-12T00:42:41.974Z,100.00
2019-05-12T00:47:43.697Z,100.00
2019-05-12T00:52:45.729Z,100.00
2019-05-12T00:57:48.497Z,100.00
2019-05-12T01:02:53.162Z,100.00
2019-05-12T01:07:58.363Z,100.00
2019-05-12T01:13:00.976Z,100.00
2019-05-12T01:18:09.463Z,100.00
2019-05-12T01:23:23.051Z,100.00
2019-05-12T01:28:25.165Z,100.00
2019-05-12T01:33:27.731Z,100.00
2019-05-12T01:38:29.812Z,100.00
2019-05-12T01:43:32.173Z,100.00
2019-05-12T01:48:37.768Z,100.00
2019-05-12T01:53:40.354Z,100.00
2019-05-12T01:58:42.310Z,100.00
2019-05-12T02:03:44.227Z,100.00
2019-05-12T02:08:51.318Z,100.00
2019-05-12T02:13:53.915Z,100.00
2019-05-12T02:18:58.176Z,100.00
2019-05-12T02:23:59.831Z,100.00
2019-05-12T02:29:01.745Z,100.00
2019-05-12T02:34:05.906Z,100.00
2019-05-12T02:39:08.083Z,100.00
2019-05-12T02:44:10.202Z,100.00
2019-05-12T02:49:14.636Z,100.00
2019-05-12T02:54:16.623Z,100.00
2019-05-12T02:59:21.278Z,100.00
2019-05-12T03:04:28.842Z,100.00
2019-05-12T03:09:30.936Z,100.00
2019-05-12T03:14:39.353Z,100.00
2019-05-12T03:19:36.631Z,100.00
2019-05-12T03:24:38.776Z,100.00
2019-05-12T03:29:40.562Z,100.00
2019-05-12T03:34:47.418Z,100.00
2019-05-12T03:39:48.542Z,100.00
2019-05-12T03:44:54.750Z,100.00
2019-05-12T03:49:56.507Z,100.00
2019-05-12T03:54:58.587Z,100.00
2019-05-12T04:00:00.412Z,100.00
2019-05-12T04:05:05.194Z,100.00
2019-05-12T04:10:07.177Z,100.00
2019-05-12T04:15:16.382Z,100.00
2019-05-12T04:20:20.899Z,100.00
2019-05-12T04:25:25.597Z,100.00
2019-05-12T04:30:27.525Z,100.00
2019-05-12T04:35:29.911Z,100.00
2019-05-12T04:40:36.833Z,100.00
2019-05-12T04:45:38.797Z,100.00
2019-05-12T04:50:40.625Z,100.00
2019-05-12T04:55:44.480Z,100.00
2019-05-12T05:00:46.612Z,100.00
2019-05-12T05:05:48.719Z,100.00
2019-05-12T05:10:50.649Z,100.00
2019-05-12T05:15:55.123Z,100.00
2019-05-12T05:20:56.916Z,100.00
2019-05-12T05:26:03.155Z,100.00
2019-05-12T05:31:04.739Z,100.00
2019-05-12T05:36:15.083Z,100.00
2019-05-12T05:41:17.258Z,100.00
2019-05-12T05:46:19.295Z,100.00
2019-05-12T05:51:21.252Z,100.00
2019-05-12T05:56:38.417Z,100.00
2019-05-12T06:01:27.785Z,84.44
2019-05-12T06:06:29.932Z,61.21
2019-05-12T06:11:34.505Z,54.89
2019-05-12T06:16:36.969Z,67.44
2019-05-12T06:21:45.810Z,52.46
2019-05-12T06:26:59.967Z,52.17
2019-05-12T06:31:54.149Z,51.51
2019-05-12T06:37:02.395Z,54.85
2019-05-12T06:42:11.607Z,47.04
2019-05-12T06:47:08.114Z,52.42
2019-05-12T06:52:08.527Z,63.39
2019-05-12T06:57:22.092Z,90.46
2019-05-12T07:02:16.293Z,86.39
2019-05-12T07:07:18.297Z,58.45
2019-05-12T07:12:24.873Z,56.04
2019-05-12T07:17:43.599Z,49.70
2019-05-12T07:22:44.439Z,50.65
2019-05-12T07:27:53.650Z,46.69
2019-05-12T07:32:51.121Z,49.01
2019-05-12T07:37:56.066Z,52.73
2019-05-12T07:43:09.848Z,50.24
2019-05-12T07:48:11.344Z,47.66
2019-05-12T07:53:14.491Z,52.26
2019-05-12T07:58:19.018Z,71.97
2019-05-12T08:03:21.381Z,77.01
2019-05-12T08:08:23.821Z,80.14
2019-05-12T08:13:25.725Z,74.22
2019-05-12T08:18:30.759Z,71.20
2019-05-12T08:23:33.729Z,73.16
2019-05-12T08:28:40.386Z,76.96
2019-05-12T08:33:43.472Z,66.26
2019-05-12T08:38:45.198Z,63.17
2019-05-12T08:43:54.523Z,63.24
2019-05-12T08:48:56.630Z,74.50
2019-05-12T08:54:02.351Z,70.47
2019-05-12T08:59:04.443Z,73.83
2019-05-12T09:04:11.136Z,83.79
2019-05-12T09:09:13.949Z,72.31
2019-05-12T09:14:18.648Z,74.38
2019-05-12T09:19:26.679Z,63.12
2019-05-12T09:24:27.819Z,64.44
2019-05-12T09:29:35.119Z,64.84
2019-05-12T09:34:37.256Z,68.51
2019-05-12T09:39:42.810Z,93.02
2019-05-12T09:44:43.899Z,89.07
2019-05-12T09:49:45.885Z,90.88
2019-05-12T09:54:48.975Z,99.12
2019-05-12T09:59:57.252Z,86.68
2019-05-12T10:04:56.433Z,100.00
2019-05-12T10:09:59.184Z,94.68
2019-05-12T10:15:04.243Z,89.85
2019-05-12T10:20:06.930Z,80.75
2019-05-12T10:25:14.460Z,72.61
2019-05-12T10:30:17.246Z,96.27
2019-05-12T10:35:21.414Z,93.34
2019-05-12T10:40:24.810Z,94.20
2019-05-12T10:45:28.947Z,80.69
2019-05-12T10:50:31.115Z,76.53
2019-05-12T10:55:34.933Z,87.48
2019-05-12T11:00:36.965Z,92.32
2019-05-12T11:05:38.915Z,96.11
2019-05-12T11:10:40.896Z,89.10
2019-05-12T11:15:47.780Z,77.48
2019-05-12T11:20:46.653Z,60.34
2019-05-12T11:25:50.466Z,59.48
2019-05-12T11:30:52.407Z,66.02
2019-05-12T11:35:54.495Z,61.80
2019-05-12T11:40:56.459Z,69.23
2019-05-12T11:45:58.336Z,66.22
2019-05-12T11:51:03.895Z,60.59
2019-05-12T11:56:07.785Z,59.96
2019-05-12T12:01:13.487Z,58.86
2019-05-12T12:06:18.816Z,61.17
2019-05-12T12:11:25.572Z,65.29
2019-05-12T12:16:26.010Z,59.51
2019-05-12T12:21:31.804Z,64.53
2019-05-12T12:26:38.781Z,55.44
2019-05-12T12:31:48.172Z,50.94
2019-05-12T12:36:50.095Z,51.33
2019-05-12T12:42:00.064Z,55.31
2019-05-12T12:47:00.131Z,56.84
2019-05-12T12:52:03.283Z,58.70
2019-05-12T12:57:09.786Z,63.96
2019-05-12T13:02:11.574Z,59.89
2019-05-12T13:07:19.763Z,54.53
2019-05-12T13:12:21.687Z,56.22
2019-05-12T13:17:29.047Z,52.10
2019-05-12T13:22:29.576Z,51.77
2019-05-12T13:27:36.811Z,49.62
2019-05-12T13:32:39.193Z,49.30
2019-05-12T13:37:43.270Z,51.02
2019-05-12T13:42:46.427Z,49.10
2019-05-12T13:47:53.054Z,54.42
2019-05-12T13:52:54.627Z,56.80
2019-05-12T13:57:57.882Z,60.86
2019-05-12T14:03:04.773Z,62.13
2019-05-12T14:08:05.771Z,57.15
2019-05-12T14:13:07.973Z,55.65
2019-05-12T14:18:16.463Z,61.50
2019-05-12T14:23:16.050Z,55.95
2019-05-12T14:28:18.009Z,53.50
2019-05-12T14:33:19.868Z,60.88
2019-05-12T14:38:27.487Z,65.91
2019-05-12T14:43:29.031Z,64.03
2019-05-12T14:48:30.949Z,63.06
2019-05-12T14:53:38.339Z,66.03
2019-05-12T14:58:40.376Z,67.10
2019-05-12T15:03:47.532Z,59.80
2019-05-12T15:08:46.039Z,65.99
2019-05-12T15:13:47.951Z,63.37
2019-05-12T15:18:50.278Z,60.77
2019-05-12T15:23:53.313Z,65.64
2019-05-12T15:28:57.283Z,69.91
2019-05-12T15:33:58.971Z,65.75
2019-05-12T15:39:00.890Z,68.18
2019-05-12T15:44:06.501Z,68.64
2019-05-12T15:49:08.852Z,66.27
2019-05-12T15:54:14.806Z,65.17
2019-05-12T15:59:17.365Z,67.21
2019-05-12T16:04:19.414Z,64.54
2019-05-12T16:09:23.670Z,67.12
2019-05-12T16:14:25.157Z,71.18
2019-05-12T16:19:27.044Z,63.83
2019-05-12T16:24:29.013Z,62.61
2019-05-12T16:29:30.947Z,69.34
2019-05-12T16:34:36.143Z,72.36
2019-05-12T16:39:44.315Z,65.72
2019-05-12T16:44:43.927Z,64.41
2019-05-12T16:49:45.600Z,68.60
2019-05-12T16:54:47.534Z,70.33
2019-05-12T16:59:55.998Z,67.71
2019-05-12T17:04:54.455Z,65.54
2019-05-12T17:10:03.098Z,63.52
2019-05-12T17:15:04.656Z,67.24
2019-05-12T17:20:09.925Z,71.96
2019-05-12T17:25:16.985Z,73.08
2019-05-12T17:30:19.718Z,71.17
2019-05-12T17:35:29.372Z,69.17
2019-05-12T17:40:25.461Z,69.22
2019-05-12T17:45:27.533Z,68.17
2019-05-12T17:50:29.433Z,69.35
2019-05-12T17:55:31.352Z,75.82
2019-05-12T18:00:33.686Z,75.02
2019-05-12T18:05:37.146Z,75.83
2019-05-12T18:10:39.600Z,75.14
2019-05-12T18:15:41.582Z,74.82
2019-05-12T18:20:44.491Z,73.63
2019-05-12T18:25:46.795Z,77.01
2019-05-12T18:30:50.949Z,84.87
2019-05-12T18:35:54.477Z,88.38
2019-05-12T18:40:56.907Z,86.76
2019-05-12T18:46:05.454Z,88.99
2019-05-12T18:51:11.870Z,85.51
2019-05-12T18:56:10.423Z,91.63
2019-05-12T19:01:13.915Z,98.84
2019-05-12T19:06:16.360Z,97.74
2019-05-12T19:11:31.851Z,100.00
2019-05-12T19:16:27.858Z,100.00
2019-05-12T19:21:30.863Z,100.00
2019-05-12T19:26:38.308Z,100.00
2019-05-12T19:31:43.571Z,100.00
2019-05-12T19:36:45.063Z,100.00
2019-05-12T19:41:45.161Z,100.00
2019-05-12T19:46:49.532Z,100.00
2019-05-12T19:51:54.280Z,100.00
2019-05-12T19:56:55.649Z,100.00
2019-05-12T20:02:00.475Z,100.00
2019-05-12T20:07:03.686Z,100.00
2019-05-12T20:12:19.229Z,100.00
2019-05-12T20:17:21.377Z,100.00
2019-05-12T20:22:25.212Z,100.00
2019-05-12T20:27:27.382Z,100.00
2019-05-12T20:32:31.042Z,100.00
2019-05-12T20:37:33.656Z,100.00
2019-05-12T20:42:48.266Z,100.00
2019-05-12T20:47:45.510Z,100.00
2019-05-12T20:52:52.231Z,100.00
2019-05-12T20:57:54.386Z,100.00
2019-05-12T21:02:56.025Z,100.00
2019-05-12T21:08:03.304Z,100.00
2019-05-12T21:13:03.813Z,100.00
2019-05-12T21:18:07.504Z,100.00
2019-05-12T21:23:09.586Z,100.00
2019-05-12T21:28:11.541Z,100.00
2019-05-12T21:33:14.778Z,100.00
2019-05-12T21:38:24.398Z,100.00
2019-05-12T21:43:22.766Z,100.00
2019-05-12T21:48:29.200Z,100.00
2019-05-12T21:53:30.091Z,100.00
2019-05-12T21:58:32.013Z,100.00
2019-05-12T22:03:33.924Z,100.00
2019-05-12T22:08:35.880Z,100.00
2019-05-12T22:13:47.303Z,100.00
2019-05-12T22:18:43.834Z,100.00
2019-05-12T22:23:51.424Z,100.00
2019-05-12T22:28:50.952Z,100.00
2019-05-12T22:33:56.257Z,100.00
2019-05-12T22:39:00.995Z,100.00
2019-05-12T22:44:01.122Z,100.00
2019-05-12T22:49:04.188Z,100.00
2019-05-12T22:54:10.416Z,100.00
2019-05-12T22:59:10.178Z,100.00
2019-05-12T23:04:14.093Z,100.00
2019-05-12T23:09:19.367Z,100.00
2019-05-12T23:14:25.119Z,100.00
2019-05-12T23:19:28.169Z,100.00
2019-05-12T23:24:35.386Z,100.00
2019-05-12T23:29:34.016Z,100.00
2019-05-12T23:34:35.764Z,100.00
2019-05-12T23:39:39.909Z,100.00
2019-05-12T23:44:44.142Z,100.00
2019-05-12T23:49:45.996Z,100.00
2019-05-12T23:54:48.189Z,100.00
2019-05-12T23:59:50.000Z,100.00
